sensor_id;sensor_type;location;lat;lon;timestamp;pressure;altitude;pressure_sealevel;temperature;humidity
63194;BME280;49289;51.670;5.624;2023-02-14T00:01:38;103599.69;;;10.37;53.64
63194;BME280;49289;51.670;5.624;2023-02-14T00:03:26;103618.84;;;10.51;53.58
63194;BME280;49289;51.670;5.624;2023-02-14T00:05:15;103601.70;;;10.41;53.61
63194;BME280;49289;51.670;5.624;2023-02-14T00:07:03;103603.95;;;10.35;53.74
63194;BME280;49289;51.670;5.624;2023-02-14T00:08:51;103602.58;;;10.35;53.58
63194;BME280;49289;51.670;5.624;2023-02-14T00:10:39;103607.09;;;10.29;53.76
63194;BME280;49289;51.670;5.624;2023-02-14T00:12:26;103622.01;;;10.40;53.66
63194;BME280;49289;51.670;5.624;2023-02-14T00:14:16;103605.87;;;10.25;53.64
63194;BME280;49289;51.670;5.624;2023-02-14T00:16:03;103621.09;;;10.29;53.77
63194;BME280;49289;51.670;5.624;2023-02-14T00:17:52;103606.45;;;10.20;53.58
63194;BME280;49289;51.670;5.624;2023-02-14T00:19:41;103599.20;;;10.09;53.70
63194;BME280;49289;51.670;5.624;2023-02-14T00:21:29;103615.83;;;10.21;54.03
63194;BME280;49289;51.670;5.624;2023-02-14T00:23:17;103604.05;;;10.15;53.97
63194;BME280;49289;51.670;5.624;2023-02-14T00:25:07;103601.16;;;10.12;54.01
63194;BME280;49289;51.670;5.624;2023-02-14T00:26:55;103596.77;;;10.11;54.13
63194;BME280;49289;51.670;5.624;2023-02-14T00:28:42;103613.48;;;10.09;54.26
63194;BME280;49289;51.670;5.624;2023-02-14T00:30:30;103593.60;;;10.01;54.35
63194;BME280;49289;51.670;5.624;2023-02-14T00:32:20;103597.55;;;10.04;54.19
63194;BME280;49289;51.670;5.624;2023-02-14T00:34:08;103592.34;;;10.05;54.03
63194;BME280;49289;51.670;5.624;2023-02-14T00:35:55;103590.56;;;10.06;53.98
63194;BME280;49289;51.670;5.624;2023-02-14T00:38:43;103592.11;;;10.16;53.83
63194;BME280;49289;51.670;5.624;2023-02-14T00:40:33;103598.52;;;10.18;53.74
63194;BME280;49289;51.670;5.624;2023-02-14T00:42:21;103607.67;;;10.10;53.88
63194;BME280;49289;51.670;5.624;2023-02-14T00:44:08;103609.44;;;10.06;54.03
63194;BME280;49289;51.670;5.624;2023-02-14T00:45:56;103592.06;;;9.91;54.19
63194;BME280;49289;51.670;5.624;2023-02-14T00:47:44;103588.61;;;9.96;54.02
63194;BME280;49289;51.670;5.624;2023-02-14T00:49:33;103589.02;;;10.02;54.08
63194;BME280;49289;51.670;5.624;2023-02-14T00:51:20;103598.30;;;10.05;54.03
63194;BME280;49289;51.670;5.624;2023-02-14T00:53:07;103602.56;;;10.08;53.92
63194;BME280;49289;51.670;5.624;2023-02-14T00:54:54;103597.48;;;10.05;54.10
63194;BME280;49289;51.670;5.624;2023-02-14T00:56:41;103599.87;;;10.06;54.14
63194;BME280;49289;51.670;5.624;2023-02-14T00:58:30;103583.13;;;9.89;54.37
63194;BME280;49289;51.670;5.624;2023-02-14T01:00:20;103602.97;;;10.00;54.17
63194;BME280;49289;51.670;5.624;2023-02-14T01:02:07;103605.22;;;10.04;53.94
63194;BME280;49289;51.670;5.624;2023-02-14T01:03:57;103591.52;;;9.91;54.02
63194;BME280;49289;51.670;5.624;2023-02-14T01:05:45;103587.70;;;9.82;53.80
63194;BME280;49289;51.670;5.624;2023-02-14T01:07:32;103612.16;;;9.90;53.71
63194;BME280;49289;51.670;5.624;2023-02-14T01:09:21;103595.53;;;9.80;53.72
63194;BME280;49289;51.670;5.624;2023-02-14T01:11:14;103592.94;;;9.76;53.64
63194;BME280;49289;51.670;5.624;2023-02-14T01:13:01;103603.73;;;9.84;53.64
63194;BME280;49289;51.670;5.624;2023-02-14T01:14:51;103592.91;;;9.66;53.98
63194;BME280;49289;51.670;5.624;2023-02-14T01:16:39;103586.48;;;9.70;53.66
63194;BME280;49289;51.670;5.624;2023-02-14T01:18:26;103583.61;;;9.64;53.80
63194;BME280;49289;51.670;5.624;2023-02-14T01:20:17;103587.98;;;9.64;54.03
63194;BME280;49289;51.670;5.624;2023-02-14T01:22:05;103582.76;;;9.55;54.02
63194;BME280;49289;51.670;5.624;2023-02-14T01:23:54;103606.55;;;9.60;54.18
63194;BME280;49289;51.670;5.624;2023-02-14T01:25:43;103589.17;;;9.52;54.14
63194;BME280;49289;51.670;5.624;2023-02-14T01:27:31;103593.08;;;9.56;53.90
63194;BME280;49289;51.670;5.624;2023-02-14T01:29:19;103609.66;;;9.68;53.83
63194;BME280;49289;51.670;5.624;2023-02-14T01:31:12;103583.97;;;9.52;53.89
63194;BME280;49289;51.670;5.624;2023-02-14T01:32:58;103588.06;;;9.47;53.99
63194;BME280;49289;51.670;5.624;2023-02-14T01:34:46;103593.20;;;9.49;53.97
63194;BME280;49289;51.670;5.624;2023-02-14T01:36:34;103611.92;;;9.53;54.05
63194;BME280;49289;51.670;5.624;2023-02-14T01:38:23;103599.20;;;9.44;54.09
63194;BME280;49289;51.670;5.624;2023-02-14T01:40:10;103615.90;;;9.45;54.38
63194;BME280;49289;51.670;5.624;2023-02-14T01:41:59;103598.87;;;9.37;54.42
63194;BME280;49289;51.670;5.624;2023-02-14T01:44:02;103593.78;;;9.34;54.43
63194;BME280;49289;51.670;5.624;2023-02-14T01:45:49;103595.31;;;9.28;54.51
63194;BME280;49289;51.670;5.624;2023-02-14T01:47:38;103593.64;;;9.36;54.63
63194;BME280;49289;51.670;5.624;2023-02-14T01:49:27;103592.47;;;9.28;54.49
63194;BME280;49289;51.670;5.624;2023-02-14T01:51:13;103608.09;;;9.37;54.55
63194;BME280;49289;51.670;5.624;2023-02-14T01:53:01;103607.03;;;9.38;54.39
63194;BME280;49289;51.670;5.624;2023-02-14T01:54:50;103595.22;;;9.30;54.54
63194;BME280;49289;51.670;5.624;2023-02-14T01:56:39;103592.64;;;9.30;54.45
63194;BME280;49289;51.670;5.624;2023-02-14T01:58:27;103589.20;;;9.21;54.47
63194;BME280;49289;51.670;5.624;2023-02-14T02:00:15;103592.48;;;9.21;54.56
63194;BME280;49289;51.670;5.624;2023-02-14T02:02:03;103607.55;;;9.34;54.58
63194;BME280;49289;51.670;5.624;2023-02-14T02:03:53;103608.23;;;9.36;54.51
63194;BME280;49289;51.670;5.624;2023-02-14T02:05:40;103607.42;;;9.26;54.77
63194;BME280;49289;51.670;5.624;2023-02-14T02:07:29;103592.34;;;9.26;54.67
63194;BME280;49289;51.670;5.624;2023-02-14T02:09:19;103582.59;;;9.24;54.42
63194;BME280;49289;51.670;5.624;2023-02-14T02:11:06;103599.41;;;9.31;54.66
63194;BME280;49289;51.670;5.624;2023-02-14T02:12:55;103595.38;;;9.28;54.60
63194;BME280;49289;51.670;5.624;2023-02-14T02:14:42;103591.28;;;9.24;54.82
63194;BME280;49289;51.670;5.624;2023-02-14T02:16:36;103566.81;;;9.13;54.96
63194;BME280;49289;51.670;5.624;2023-02-14T02:18:24;103583.00;;;9.18;54.93
63194;BME280;49289;51.670;5.624;2023-02-14T02:20:20;103560.29;;;9.12;54.85
63194;BME280;49289;51.670;5.624;2023-02-14T02:22:26;103567.80;;;9.16;54.92
63194;BME280;49289;51.670;5.624;2023-02-14T02:24:28;103566.21;;;9.19;54.82
63194;BME280;49289;51.670;5.624;2023-02-14T02:26:37;103570.61;;;9.22;54.73
63194;BME280;49289;51.670;5.624;2023-02-14T02:28:37;103560.97;;;9.17;54.86
63194;BME280;49289;51.670;5.624;2023-02-14T02:30:53;103561.02;;;9.24;54.73
63194;BME280;49289;51.670;5.624;2023-02-14T02:35:12;103562.13;;;9.36;54.66
63194;BME280;49289;51.670;5.624;2023-02-14T02:37:07;103560.02;;;9.34;54.66
63194;BME280;49289;51.670;5.624;2023-02-14T02:39:09;103507.22;;;8.91;54.67
63194;BME280;49289;51.670;5.624;2023-02-14T02:41:00;103560.66;;;9.19;54.69
63194;BME280;49289;51.670;5.624;2023-02-14T02:42:51;103560.27;;;9.16;54.68
63194;BME280;49289;51.670;5.624;2023-02-14T02:44:39;103575.27;;;9.22;54.71
63194;BME280;49289;51.670;5.624;2023-02-14T02:46:30;103557.71;;;9.09;54.66
63194;BME280;49289;51.670;5.624;2023-02-14T02:48:17;103574.83;;;9.18;54.61
63194;BME280;49289;51.670;5.624;2023-02-14T02:50:08;103572.82;;;9.21;54.62
63194;BME280;49289;51.670;5.624;2023-02-14T02:51:54;103559.77;;;9.10;54.58
63194;BME280;49289;51.670;5.624;2023-02-14T02:53:44;103559.30;;;9.06;54.62
63194;BME280;49289;51.670;5.624;2023-02-14T02:55:32;103563.19;;;9.02;54.70
63194;BME280;49289;51.670;5.624;2023-02-14T02:57:20;103562.37;;;9.00;54.73
63194;BME280;49289;51.670;5.624;2023-02-14T02:59:07;103577.69;;;9.13;54.58
63194;BME280;49289;51.670;5.624;2023-02-14T03:00:55;103563.03;;;9.05;54.50
63194;BME280;49289;51.670;5.624;2023-02-14T03:02:45;103584.20;;;9.15;54.43
63194;BME280;49289;51.670;5.624;2023-02-14T03:04:34;103584.41;;;9.04;54.46
63194;BME280;49289;51.670;5.624;2023-02-14T03:06:21;103567.23;;;8.94;54.42
63194;BME280;49289;51.670;5.624;2023-02-14T03:08:08;103582.12;;;9.07;54.34
63194;BME280;49289;51.670;5.624;2023-02-14T03:10:05;103562.02;;;8.96;54.32
63194;BME280;49289;51.670;5.624;2023-02-14T03:11:54;103585.31;;;9.05;54.25
63194;BME280;49289;51.670;5.624;2023-02-14T03:13:56;103561.80;;;8.86;54.43
63194;BME280;49289;51.670;5.624;2023-02-14T03:15:57;103564.47;;;8.81;54.73
63194;BME280;49289;51.670;5.624;2023-02-14T03:17:47;103559.97;;;8.84;54.72
63194;BME280;49289;51.670;5.624;2023-02-14T03:19:52;103560.53;;;8.83;54.65
63194;BME280;49289;51.670;5.624;2023-02-14T03:21:41;103564.11;;;8.79;54.78
63194;BME280;49289;51.670;5.624;2023-02-14T03:23:28;103577.95;;;8.86;54.79
63194;BME280;49289;51.670;5.624;2023-02-14T03:25:20;103563.97;;;8.87;54.64
63194;BME280;49289;51.670;5.624;2023-02-14T03:27:09;103563.44;;;8.80;54.59
63194;BME280;49289;51.670;5.624;2023-02-14T03:28:58;103567.27;;;8.76;54.58
63194;BME280;49289;51.670;5.624;2023-02-14T03:30:45;103565.59;;;8.76;54.51
63194;BME280;49289;51.670;5.624;2023-02-14T03:32:32;103568.98;;;8.68;54.78
63194;BME280;49289;51.670;5.624;2023-02-14T03:34:20;103567.41;;;8.68;54.75
63194;BME280;49289;51.670;5.624;2023-02-14T03:36:07;103591.18;;;8.76;54.63
63194;BME280;49289;51.670;5.624;2023-02-14T03:37:55;103584.88;;;8.78;54.63
63194;BME280;49289;51.670;5.624;2023-02-14T03:39:42;103587.47;;;8.76;54.79
63194;BME280;49289;51.670;5.624;2023-02-14T03:41:30;103584.20;;;8.76;54.80
63194;BME280;49289;51.670;5.624;2023-02-14T03:43:20;103563.00;;;8.67;54.76
63194;BME280;49289;51.670;5.624;2023-02-14T03:45:08;103563.97;;;8.68;54.72
63194;BME280;49289;51.670;5.624;2023-02-14T03:46:56;103579.60;;;8.73;54.82
63194;BME280;49289;51.670;5.624;2023-02-14T03:48:44;103565.67;;;8.67;54.72
63194;BME280;49289;51.670;5.624;2023-02-14T03:50:34;103561.09;;;8.63;54.79
63194;BME280;49289;51.670;5.624;2023-02-14T03:52:22;103562.91;;;8.66;54.99
63194;BME280;49289;51.670;5.624;2023-02-14T03:54:09;103576.83;;;8.81;54.76
63194;BME280;49289;51.670;5.624;2023-02-14T03:56:00;103555.47;;;8.64;54.94
63194;BME280;49289;51.670;5.624;2023-02-14T03:57:48;103557.38;;;8.67;54.92
63194;BME280;49289;51.670;5.624;2023-02-14T03:59:34;103571.02;;;8.83;54.83
63194;BME280;49289;51.670;5.624;2023-02-14T04:01:23;103572.95;;;8.82;54.83
63194;BME280;49289;51.670;5.624;2023-02-14T04:03:12;103553.58;;;8.69;54.94
63194;BME280;49289;51.670;5.624;2023-02-14T04:05:00;103558.05;;;8.73;54.79
63194;BME280;49289;51.670;5.624;2023-02-14T04:06:47;103572.11;;;8.77;54.82
63194;BME280;49289;51.670;5.624;2023-02-14T04:08:37;103554.19;;;8.68;54.74
63194;BME280;49289;51.670;5.624;2023-02-14T04:10:25;103580.91;;;8.80;54.69
63194;BME280;49289;51.670;5.624;2023-02-14T04:12:13;103563.67;;;8.73;54.75
63194;BME280;49289;51.670;5.624;2023-02-14T04:14:00;103579.99;;;8.82;54.90
63194;BME280;49289;51.670;5.624;2023-02-14T04:15:47;103584.09;;;8.79;54.89
63194;BME280;49289;51.670;5.624;2023-02-14T04:17:34;103562.45;;;8.71;54.78
63194;BME280;49289;51.670;5.624;2023-02-14T04:19:22;103570.48;;;8.73;54.84
63194;BME280;49289;51.670;5.624;2023-02-14T04:21:11;103570.44;;;8.66;54.83
63194;BME280;49289;51.670;5.624;2023-02-14T04:22:59;103568.79;;;8.67;54.80
63194;BME280;49289;51.670;5.624;2023-02-14T04:24:49;103585.13;;;8.69;54.82
63194;BME280;49289;51.670;5.624;2023-02-14T04:26:37;103563.38;;;8.64;54.75
63194;BME280;49289;51.670;5.624;2023-02-14T04:28:24;103564.00;;;8.61;54.72
63194;BME280;49289;51.670;5.624;2023-02-14T04:30:14;103560.77;;;8.58;54.72
63194;BME280;49289;51.670;5.624;2023-02-14T04:32:04;103566.09;;;8.59;54.75
63194;BME280;49289;51.670;5.624;2023-02-14T04:33:52;103565.63;;;8.58;54.70
63194;BME280;49289;51.670;5.624;2023-02-14T04:35:40;103559.23;;;8.51;54.86
63194;BME280;49289;51.670;5.624;2023-02-14T04:37:27;103575.12;;;8.64;54.82
63194;BME280;49289;51.670;5.624;2023-02-14T04:39:14;103576.02;;;8.62;54.88
63194;BME280;49289;51.670;5.624;2023-02-14T04:41:02;103577.02;;;8.67;54.80
63194;BME280;49289;51.670;5.624;2023-02-14T04:42:50;103559.33;;;8.56;54.88
63194;BME280;49289;51.670;5.624;2023-02-14T04:44:40;103558.33;;;8.60;54.88
63194;BME280;49289;51.670;5.624;2023-02-14T04:46:28;103553.56;;;8.58;54.96
63194;BME280;49289;51.670;5.624;2023-02-14T04:48:16;103553.49;;;8.64;55.04
63194;BME280;49289;51.670;5.624;2023-02-14T04:50:04;103552.03;;;8.64;55.13
63194;BME280;49289;51.670;5.624;2023-02-14T04:51:56;103562.94;;;8.71;55.01
63194;BME280;49289;51.670;5.624;2023-02-14T04:53:44;103566.25;;;8.72;55.00
63194;BME280;49289;51.670;5.624;2023-02-14T04:55:32;103546.48;;;8.61;55.00
63194;BME280;49289;51.670;5.624;2023-02-14T04:57:19;103558.95;;;8.74;54.95
63194;BME280;49289;51.670;5.624;2023-02-14T04:59:06;103562.31;;;8.72;55.17
63194;BME280;49289;51.670;5.624;2023-02-14T05:00:53;103556.93;;;8.78;55.30
63194;BME280;49289;51.670;5.624;2023-02-14T05:02:40;103558.63;;;8.78;55.36
63194;BME280;49289;51.670;5.624;2023-02-14T05:04:27;103557.97;;;8.86;55.33
63194;BME280;49289;51.670;5.624;2023-02-14T05:06:14;103559.25;;;8.88;55.23
63194;BME280;49289;51.670;5.624;2023-02-14T05:08:02;103559.42;;;8.91;55.18
63194;BME280;49289;51.670;5.624;2023-02-14T05:09:52;103536.19;;;8.75;55.35
63194;BME280;49289;51.670;5.624;2023-02-14T05:11:40;103533.85;;;8.77;55.23
63194;BME280;49289;51.670;5.624;2023-02-14T05:13:27;103549.63;;;8.92;55.23
63194;BME280;49289;51.670;5.624;2023-02-14T05:15:14;103546.64;;;8.91;55.18
63194;BME280;49289;51.670;5.624;2023-02-14T05:17:04;103538.72;;;8.88;55.18
63194;BME280;49289;51.670;5.624;2023-02-14T05:18:52;103541.66;;;8.92;55.07
63194;BME280;49289;51.670;5.624;2023-02-14T05:20:40;103547.47;;;8.91;55.13
63194;BME280;49289;51.670;5.624;2023-02-14T05:22:28;103523.02;;;8.72;55.15
63194;BME280;49289;51.670;5.624;2023-02-14T05:24:16;103544.22;;;8.83;55.31
63194;BME280;49289;51.670;5.624;2023-02-14T05:26:05;103528.94;;;8.77;55.14
63194;BME280;49289;51.670;5.624;2023-02-14T05:27:53;103529.50;;;8.80;55.02
63194;BME280;49289;51.670;5.624;2023-02-14T05:29:40;103545.66;;;8.88;54.92
63194;BME280;49289;51.670;5.624;2023-02-14T05:31:30;103531.50;;;8.77;54.99
63194;BME280;49289;51.670;5.624;2023-02-14T05:33:18;103530.52;;;8.71;55.04
63194;BME280;49289;51.670;5.624;2023-02-14T05:35:06;103525.49;;;8.59;55.33
63194;BME280;49289;51.670;5.624;2023-02-14T05:36:54;103539.73;;;8.72;55.29
63194;BME280;49289;51.670;5.624;2023-02-14T05:38:42;103542.19;;;8.65;55.42
63194;BME280;49289;51.670;5.624;2023-02-14T05:40:30;103521.78;;;8.59;55.13
63194;BME280;49289;51.670;5.624;2023-02-14T05:42:17;103523.57;;;8.62;54.93
63194;BME280;49289;51.670;5.624;2023-02-14T05:44:04;103523.27;;;8.55;54.88
63194;BME280;49289;51.670;5.624;2023-02-14T05:45:54;103525.38;;;8.46;55.14
63194;BME280;49289;51.670;5.624;2023-02-14T05:47:42;103531.13;;;8.48;54.83
63194;BME280;49289;51.670;5.624;2023-02-14T05:49:30;103528.34;;;8.41;55.04
63194;BME280;49289;51.670;5.624;2023-02-14T05:51:17;103531.22;;;8.40;54.88
63194;BME280;49289;51.670;5.624;2023-02-14T05:53:04;103548.77;;;8.47;54.92
63194;BME280;49289;51.670;5.624;2023-02-14T05:54:51;103546.78;;;8.39;55.08
63194;BME280;49289;51.670;5.624;2023-02-14T05:56:40;103535.74;;;8.27;55.19
63194;BME280;49289;51.670;5.624;2023-02-14T05:58:29;103526.08;;;8.28;55.15
63194;BME280;49289;51.670;5.624;2023-02-14T06:00:18;103529.35;;;8.32;55.18
63194;BME280;49289;51.670;5.624;2023-02-14T06:02:06;103550.46;;;8.37;55.27
63194;BME280;49289;51.670;5.624;2023-02-14T06:03:53;103530.52;;;8.31;55.09
63194;BME280;49289;51.670;5.624;2023-02-14T06:05:42;103548.56;;;8.40;55.18
63194;BME280;49289;51.670;5.624;2023-02-14T06:07:29;103548.09;;;8.44;54.93
63194;BME280;49289;51.670;5.624;2023-02-14T06:09:17;103529.02;;;8.28;54.96
63194;BME280;49289;51.670;5.624;2023-02-14T06:11:06;103549.45;;;8.39;54.84
63194;BME280;49289;51.670;5.624;2023-02-14T06:12:54;103538.13;;;8.21;54.86
63194;BME280;49289;51.670;5.624;2023-02-14T06:14:42;103539.47;;;8.17;55.10
63194;BME280;49289;51.670;5.624;2023-02-14T06:16:29;103556.95;;;8.24;55.25
63194;BME280;49289;51.670;5.624;2023-02-14T06:18:17;103544.75;;;8.21;55.22
63194;BME280;49289;51.670;5.624;2023-02-14T06:20:05;103554.77;;;8.34;54.98
63194;BME280;49289;51.670;5.624;2023-02-14T06:21:51;103559.70;;;8.33;54.88
63194;BME280;49289;51.670;5.624;2023-02-14T06:23:38;103556.28;;;8.21;55.01
63194;BME280;49289;51.670;5.624;2023-02-14T06:25:27;103558.42;;;8.18;55.10
63194;BME280;49289;51.670;5.624;2023-02-14T06:27:15;103565.11;;;8.15;55.34
63194;BME280;49289;51.670;5.624;2023-02-14T06:29:04;103562.22;;;8.22;55.08
63194;BME280;49289;51.670;5.624;2023-02-14T06:30:52;103552.69;;;8.11;55.09
63194;BME280;49289;51.670;5.624;2023-02-14T06:32:40;103549.53;;;8.11;54.90
63194;BME280;49289;51.670;5.624;2023-02-14T06:34:28;103571.20;;;8.20;54.94
63194;BME280;49289;51.670;5.624;2023-02-14T06:36:17;103556.28;;;8.07;54.96
63194;BME280;49289;51.670;5.624;2023-02-14T06:38:07;103552.00;;;7.99;55.10
63194;BME280;49289;51.670;5.624;2023-02-14T06:39:55;103549.98;;;8.01;55.07
63194;BME280;49289;51.670;5.624;2023-02-14T06:41:43;103549.56;;;7.98;55.04
63194;BME280;49289;51.670;5.624;2023-02-14T06:43:33;103555.05;;;7.96;55.00
63194;BME280;49289;51.670;5.624;2023-02-14T06:45:21;103548.85;;;7.98;55.00
63194;BME280;49289;51.670;5.624;2023-02-14T06:47:08;103555.72;;;7.98;55.04
63194;BME280;49289;51.670;5.624;2023-02-14T06:48:58;103558.25;;;8.03;55.07
63194;BME280;49289;51.670;5.624;2023-02-14T06:50:46;103575.04;;;8.00;55.34
63194;BME280;49289;51.670;5.624;2023-02-14T06:52:34;103574.29;;;7.99;55.35
63194;BME280;49289;51.670;5.624;2023-02-14T06:54:22;103558.98;;;7.90;55.27
63194;BME280;49289;51.670;5.624;2023-02-14T06:57:08;103562.91;;;7.98;55.00
63194;BME280;49289;51.670;5.624;2023-02-14T06:58:55;103574.98;;;8.11;54.98
63194;BME280;49289;51.670;5.624;2023-02-14T07:00:42;103581.86;;;8.06;55.11
63194;BME280;49289;51.670;5.624;2023-02-14T07:02:31;103566.55;;;8.00;55.13
63194;BME280;49289;51.670;5.624;2023-02-14T07:04:19;103563.70;;;8.01;55.05
63194;BME280;49289;51.670;5.624;2023-02-14T07:06:08;103564.08;;;8.03;54.98
63194;BME280;49289;51.670;5.624;2023-02-14T07:07:56;103566.56;;;8.01;55.09
63194;BME280;49289;51.670;5.624;2023-02-14T07:09:44;103560.52;;;7.97;55.04
63194;BME280;49289;51.670;5.624;2023-02-14T07:11:31;103581.55;;;8.10;54.99
63194;BME280;49289;51.670;5.624;2023-02-14T07:13:18;103576.98;;;8.13;54.95
63194;BME280;49289;51.670;5.624;2023-02-14T07:15:08;103566.73;;;8.08;55.01
63194;BME280;49289;51.670;5.624;2023-02-14T07:16:55;103583.27;;;8.22;55.01
63194;BME280;49289;51.670;5.624;2023-02-14T07:18:43;103580.83;;;8.21;55.18
63194;BME280;49289;51.670;5.624;2023-02-14T07:20:32;103573.57;;;8.15;55.18
63194;BME280;49289;51.670;5.624;2023-02-14T07:22:20;103582.67;;;8.22;55.28
63194;BME280;49289;51.670;5.624;2023-02-14T07:24:08;103566.27;;;8.07;55.25
63194;BME280;49289;51.670;5.624;2023-02-14T07:25:56;103572.64;;;8.15;55.23
63194;BME280;49289;51.670;5.624;2023-02-14T07:27:46;103572.63;;;8.16;55.30
63194;BME280;49289;51.670;5.624;2023-02-14T07:29:34;103573.30;;;8.19;55.21
63194;BME280;49289;51.670;5.624;2023-02-14T07:31:21;103588.47;;;8.32;55.05
63194;BME280;49289;51.670;5.624;2023-02-14T07:33:11;103572.73;;;8.20;54.97
63194;BME280;49289;51.670;5.624;2023-02-14T07:34:59;103573.28;;;8.12;55.20
63194;BME280;49289;51.670;5.624;2023-02-14T07:36:48;103579.44;;;8.21;55.07
63194;BME280;49289;51.670;5.624;2023-02-14T07:38:37;103571.44;;;8.16;55.29
63194;BME280;49289;51.670;5.624;2023-02-14T07:40:26;103581.19;;;8.20;55.34
63194;BME280;49289;51.670;5.624;2023-02-14T07:42:13;103588.75;;;8.32;55.37
63194;BME280;49289;51.670;5.624;2023-02-14T07:44:03;103569.14;;;8.26;55.38
63194;BME280;49289;51.670;5.624;2023-02-14T07:45:51;103572.09;;;8.35;55.38
63194;BME280;49289;51.670;5.624;2023-02-14T07:47:38;103582.70;;;8.50;55.28
63194;BME280;49289;51.670;5.624;2023-02-14T07:49:25;103584.48;;;8.56;55.23
63194;BME280;49289;51.670;5.624;2023-02-14T07:51:14;103568.77;;;8.56;55.17
63194;BME280;49289;51.670;5.624;2023-02-14T07:53:02;103572.84;;;8.63;55.28
63194;BME280;49289;51.670;5.624;2023-02-14T07:54:51;103568.42;;;8.66;55.40
63194;BME280;49289;51.670;5.624;2023-02-14T07:56:39;103573.75;;;8.74;55.50
63194;BME280;49289;51.670;5.624;2023-02-14T07:58:29;103565.79;;;8.82;55.36
63194;BME280;49289;51.670;5.624;2023-02-14T08:00:18;103565.86;;;8.94;55.44
63194;BME280;49289;51.670;5.624;2023-02-14T08:02:08;103575.23;;;9.07;55.64
63194;BME280;49289;51.670;5.624;2023-02-14T08:03:55;103563.23;;;9.03;55.81
63194;BME280;49289;51.670;5.624;2023-02-14T08:05:42;103560.44;;;9.15;55.84
63194;BME280;49289;51.670;5.624;2023-02-14T08:07:30;103562.78;;;9.29;55.81
63194;BME280;49289;51.670;5.624;2023-02-14T08:09:19;103559.30;;;9.34;55.79
63194;BME280;49289;51.670;5.624;2023-02-14T08:11:06;103561.32;;;9.42;56.00
63194;BME280;49289;51.670;5.624;2023-02-14T08:12:53;103554.70;;;9.45;56.54
63194;BME280;49289;51.670;5.624;2023-02-14T08:14:42;103559.74;;;9.66;56.31
63194;BME280;49289;51.670;5.624;2023-02-14T08:16:30;103550.46;;;9.76;56.35
63194;BME280;49289;51.670;5.624;2023-02-14T08:18:17;103564.22;;;9.76;57.08
63194;BME280;49289;51.670;5.624;2023-02-14T08:20:04;103562.19;;;9.87;57.51
63194;BME280;49289;51.670;5.624;2023-02-14T08:21:52;103544.28;;;10.04;56.97
63194;BME280;49289;51.670;5.624;2023-02-14T08:23:42;103539.56;;;10.08;57.07
63194;BME280;49289;51.670;5.624;2023-02-14T08:25:29;103544.42;;;10.25;56.97
63194;BME280;49289;51.670;5.624;2023-02-14T08:27:16;103560.36;;;10.39;57.17
63194;BME280;49289;51.670;5.624;2023-02-14T08:29:03;103563.26;;;10.50;57.29
63194;BME280;49289;51.670;5.624;2023-02-14T08:30:50;103543.62;;;10.27;57.74
63194;BME280;49289;51.670;5.624;2023-02-14T08:32:38;103558.89;;;10.71;57.30
63194;BME280;49289;51.670;5.624;2023-02-14T08:34:28;103544.98;;;10.83;56.94
63194;BME280;49289;51.670;5.624;2023-02-14T08:36:17;103548.92;;;10.94;56.82
63194;BME280;49289;51.670;5.624;2023-02-14T08:38:05;103542.41;;;11.05;56.68
63194;BME280;49289;51.670;5.624;2023-02-14T08:39:53;103566.45;;;11.30;56.53
63194;BME280;49289;51.670;5.624;2023-02-14T08:41:40;103563.09;;;11.38;56.49
63194;BME280;49289;51.670;5.624;2023-02-14T08:43:27;103564.52;;;11.49;56.39
63194;BME280;49289;51.670;5.624;2023-02-14T08:45:14;103562.56;;;11.53;56.22
63194;BME280;49289;51.670;5.624;2023-02-14T08:47:02;103567.97;;;11.55;56.52
63194;BME280;49289;51.670;5.624;2023-02-14T08:48:51;103557.11;;;11.66;56.24
63194;BME280;49289;51.670;5.624;2023-02-14T08:50:39;103552.52;;;11.81;56.07
63194;BME280;49289;51.670;5.624;2023-02-14T08:52:26;103553.22;;;11.66;56.14
63194;BME280;49289;51.670;5.624;2023-02-14T08:54:16;103556.73;;;11.61;56.22
63194;BME280;49289;51.670;5.624;2023-02-14T08:56:07;103568.87;;;11.99;56.05
63194;BME280;49289;51.670;5.624;2023-02-14T08:57:53;103570.25;;;12.06;55.86
63194;BME280;49289;51.670;5.624;2023-02-14T08:59:43;103552.31;;;11.96;55.56
63194;BME280;49289;51.670;5.624;2023-02-14T09:01:31;103542.06;;;12.14;55.37
63194;BME280;49289;51.670;5.624;2023-02-14T09:03:18;103561.53;;;12.48;54.84
63194;BME280;49289;51.670;5.624;2023-02-14T09:05:06;103557.81;;;12.36;55.08
63194;BME280;49289;51.670;5.624;2023-02-14T09:06:53;103488.92;;;12.29;54.47
63194;BME280;49289;51.670;5.624;2023-02-14T09:08:40;103541.47;;;12.81;54.05
63194;BME280;49289;51.670;5.624;2023-02-14T09:10:27;103538.20;;;12.64;54.20
63194;BME280;49289;51.670;5.624;2023-02-14T09:12:16;103542.59;;;12.94;54.01
63194;BME280;49289;51.670;5.624;2023-02-14T09:14:03;103555.16;;;12.58;54.04
63194;BME280;49289;51.670;5.624;2023-02-14T09:15:53;103539.13;;;12.88;53.51
63194;BME280;49289;51.670;5.624;2023-02-14T09:17:41;103537.50;;;12.97;54.01
63194;BME280;49289;51.670;5.624;2023-02-14T09:19:28;103555.84;;;13.06;53.61
63194;BME280;49289;51.670;5.624;2023-02-14T09:21:19;103540.79;;;12.78;53.74
63194;BME280;49289;51.670;5.624;2023-02-14T09:23:06;103562.64;;;13.45;52.78
63194;BME280;49289;51.670;5.624;2023-02-14T09:24:55;103559.53;;;13.30;53.10
63194;BME280;49289;51.670;5.624;2023-02-14T09:26:42;103556.22;;;13.57;52.69
63194;BME280;49289;51.670;5.624;2023-02-14T09:28:31;103537.09;;;13.91;51.82
63194;BME280;49289;51.670;5.624;2023-02-14T09:30:20;103534.10;;;13.93;51.98
63194;BME280;49289;51.670;5.624;2023-02-14T09:32:09;103550.51;;;13.99;52.09
63194;BME280;49289;51.670;5.624;2023-02-14T09:33:57;103529.19;;;14.11;51.16
63194;BME280;49289;51.670;5.624;2023-02-14T09:35:45;103534.47;;;13.94;51.22
63194;BME280;49289;51.670;5.624;2023-02-14T09:37:32;103546.25;;;14.16;51.02
63194;BME280;49289;51.670;5.624;2023-02-14T09:39:22;103527.26;;;13.91;51.88